Terminal Aerodrome Forecast
Issued by NWS

Home | Current Version | Previous Version | Text Only | Print | Product List | Glossary On
Versions: 1 2 3 4 5 6 7 8 9 10 11 12 13
707
FTUS46 KMFR 111141
TAFOTH
TAF
KOTH 111141Z 1112/1212 15005KT P6SM VCSH FEW035 SCT060 OVC090
     FM111700 17005KT P6SM -SHRA SCT025 BKN035 OVC050
     FM112100 24008KT P6SM FEW030 BKN050 OVC140=

USA.gov is the U.S. government's official web portal to all federal, state and local government web resources and services.